Time;durP1;ratioP1;P1;durP2;ratioP2;P2;SDS_P1;SDS_P2;PMS_P1;PMS_P2;Temp;Humidity;BMP_temperature;BMP_pressure;BME280_temperature;BME280_humidity;BME280_pressure;Samples;Min_cycle;Max_cycle;Signal;HPM_P1;HPM_P2
2023/12/09 00:02:15;;;;;;;21.95;14.23;;;;;;;2.23;100.00;99924.88;5068025;28;20479;-72
2023/12/09 00:04:40;;;;;;;19.25;12.88;;;;;;;2.15;100.00;99883.88;5066860;28;20101;-70
2023/12/09 00:07:05;;;;;;;21.33;14.07;;;;;;;2.48;100.00;99970.94;5066263;28;20029;-70
2023/12/09 00:09:31;;;;;;;22.45;14.68;;;;;;;2.08;100.00;99886.34;5066986;28;20067;-70
2023/12/09 00:11:56;;;;;;;23.75;14.70;;;;;;;2.52;100.00;99975.13;5067438;28;20044;-71
2023/12/09 00:14:22;;;;;;;21.13;14.32;;;;;;;1.96;100.00;99907.16;5067583;28;20044;-70
2023/12/09 00:16:49;;;;;;;20.38;13.40;;;;;;;1.48;100.00;99927.75;5067471;28;20112;-71
2023/12/09 00:19:14;;;;;;;19.48;12.90;;;;;;;2.25;100.00;99980.03;5054361;28;20040;-71
2023/12/09 00:21:40;;;;;;;23.88;13.80;;;;;;;2.30;100.00;99945.75;5067208;28;20111;-70
2023/12/09 00:24:06;;;;;;;20.65;13.48;;;;;;;1.99;100.00;99977.38;5067118;28;20406;-72
2023/12/09 00:26:31;;;;;;;21.25;13.52;;;;;;;2.44;100.00;99959.22;5067760;28;20032;-70
2023/12/09 00:28:57;;;;;;;19.98;12.25;;;;;;;2.49;100.00;100005.22;5067405;28;20027;-71
2023/12/09 00:31:22;;;;;;;19.98;12.88;;;;;;;2.29;100.00;99954.97;5055189;28;20036;-70
2023/12/09 00:33:48;;;;;;;25.17;15.05;;;;;;;2.46;100.00;99939.97;5067050;28;20047;-70
2023/12/09 00:36:13;;;;;;;25.80;15.25;;;;;;;2.16;100.00;99945.72;5066844;28;20121;-70
2023/12/09 00:38:39;;;;;;;24.23;13.98;;;;;;;2.39;100.00;99943.31;5066371;28;20418;-70
2023/12/09 00:41:05;;;;;;;21.63;14.00;;;;;;;2.46;100.00;99955.03;5066671;28;20505;-70
2023/12/09 00:43:32;;;;;;;26.58;16.38;;;;;;;2.01;100.00;99983.22;5054968;28;20029;-70
2023/12/09 00:45:57;;;;;;;21.30;13.10;;;;;;;2.03;100.00;99985.75;5067232;28;20032;-71
2023/12/09 00:48:23;;;;;;;19.98;12.63;;;;;;;1.38;100.00;99943.53;5066892;28;20043;-71
2023/12/09 00:50:48;;;;;;;21.02;12.65;;;;;;;1.35;100.00;99917.63;5067196;28;20056;-71
2023/12/09 00:53:14;;;;;;;21.23;13.10;;;;;;;1.09;100.00;99834.81;5067299;28;20033;-72
2023/12/09 00:55:39;;;;;;;19.33;13.02;;;;;;;1.87;100.00;99963.91;5062392;28;20067;-71
2023/12/09 00:58:05;;;;;;;17.85;12.05;;;;;;;1.75;100.00;99897.03;5066635;28;20036;-71
2023/12/09 01:00:30;;;;;;;19.40;12.18;;;;;;;1.49;100.00;99866.81;5053448;28;20029;-71
2023/12/09 01:02:56;;;;;;;18.58;11.88;;;;;;;2.09;100.00;99945.66;5066652;28;20028;-71
2023/12/09 01:05:21;;;;;;;19.42;12.52;;;;;;;1.51;100.00;99875.19;5068924;28;20032;-72
2023/12/09 01:07:47;;;;;;;20.98;12.27;;;;;;;1.76;100.00;99977.19;5069887;28;20060;-70
2023/12/09 01:10:12;;;;;;;20.63;12.73;;;;;;;1.50;100.00;99891.06;5070110;28;20103;-72
2023/12/09 01:12:38;;;;;;;19.02;12.15;;;;;;;1.52;100.00;99841.81;5070434;28;20036;-71
2023/12/09 01:15:04;;;;;;;19.48;12.57;;;;;;;1.85;100.00;99943.03;5069575;28;20025;-71
2023/12/09 01:17:29;;;;;;;21.70;13.45;;;;;;;1.69;100.00;99950.44;5070716;28;20075;-72
2023/12/09 01:19:55;;;;;;;39.38;21.63;;;;;;;1.88;100.00;99928.03;5070255;28;20040;-72
2023/12/09 01:22:20;;;;;;;35.15;19.33;;;;;;;1.46;100.00;99956.13;5069796;28;20027;-71
2023/12/09 01:24:46;;;;;;;24.20;14.55;;;;;;;1.55;100.00;99949.50;5070092;28;20028;-71
2023/12/09 01:27:11;;;;;;;29.83;18.20;;;;;;;1.54;100.00;99957.84;5059793;28;20402;-72
2023/12/09 01:29:37;;;;;;;28.40;17.55;;;;;;;1.20;100.00;99883.31;5061263;28;20040;-72
2023/12/09 01:32:03;;;;;;;26.48;15.23;;;;;;;1.48;100.00;99977.00;5070065;28;20032;-71
2023/12/09 01:34:28;;;;;;;21.85;13.40;;;;;;;1.19;100.00;99891.63;5054950;28;20490;-71
2023/12/09 01:36:54;;;;;;;20.73;12.73;;;;;;;1.08;100.00;99900.72;5070492;28;20035;-71
2023/12/09 01:39:20;;;;;;;19.50;12.35;;;;;;;0.67;100.00;99789.47;5070242;28;20039;-71
2023/12/09 01:41:46;;;;;;;20.98;13.13;;;;;;;1.41;100.00;99892.63;5057292;28;20025;-71
2023/12/09 01:44:11;;;;;;;19.67;12.75;;;;;;;1.96;100.00;99943.94;5069917;28;20107;-71
2023/12/09 01:46:38;;;;;;;20.10;12.38;;;;;;;1.27;100.00;99929.25;5070263;28;20065;-71
2023/12/09 01:49:04;;;;;;;19.80;12.25;;;;;;;1.30;100.00;99866.69;5070054;28;20134;-71
2023/12/09 01:51:30;;;;;;;22.85;13.77;;;;;;;1.29;100.00;99887.56;5069695;28;20036;-72
2023/12/09 01:53:56;;;;;;;23.30;13.13;;;;;;;1.72;100.00;99945.44;5069564;28;20468;-72
2023/12/09 01:56:21;;;;;;;23.17;14.00;;;;;;;1.19;100.00;99903.34;5070365;28;20024;-71
2023/12/09 01:58:47;;;;;;;24.88;14.63;;;;;;;1.72;100.00;99962.97;5069557;28;20107;-71
2023/12/09 02:01:13;;;;;;;22.52;13.30;;;;;;;0.97;100.00;99843.91;5069223;28;20090;-70
2023/12/09 02:03:39;;;;;;;19.95;12.43;;;;;;;1.63;100.00;99977.94;5064160;28;20032;-71
2023/12/09 02:06:05;;;;;;;20.38;12.18;;;;;;;1.52;100.00;99926.97;5058522;28;20028;-70
2023/12/09 02:08:31;;;;;;;22.05;13.80;;;;;;;1.82;100.00;99958.06;5069622;28;20024;-70
2023/12/09 02:11:11;;;;;;;26.23;13.48;;;;;;;1.81;100.00;99991.44;5060819;28;20089;-71
2023/12/09 02:14:07;;;;;;;21.25;12.75;;;;;;;1.67;100.00;99932.06;5068657;28;20032;-72
2023/12/09 02:16:52;;;;;;;24.45;13.70;;;;;;;1.93;100.00;99948.91;5068446;28;20027;-72
2023/12/09 02:19:18;;;;;;;23.60;13.95;;;;;;;1.65;100.00;99956.25;5058520;28;20063;-72
2023/12/09 02:22:02;;;;;;;25.02;15.32;;;;;;;1.76;100.00;99971.38;5069515;28;20025;-71
2023/12/09 02:24:28;;;;;;;30.73;17.27;;;;;;;1.13;100.00;99851.53;5068654;28;20024;-71
2023/12/09 02:27:01;;;;;;;26.88;17.00;;;;;;;1.82;100.00;100000.66;5058925;28;20036;-71
2023/12/09 02:29:27;;;;;;;28.33;16.08;;;;;;;1.20;100.00;99990.09;5069156;28;20103;-71
2023/12/09 02:32:00;;;;;;;26.30;15.55;;;;;;;1.25;100.00;99996.81;5055432;28;20102;-70
2023/12/09 02:34:28;;;;;;;23.10;13.40;;;;;;;1.05;100.00;99925.72;5068220;28;20495;-70
2023/12/09 02:36:56;;;;;;;21.40;13.35;;;;;;;1.41;100.00;100020.31;5059795;28;20020;-70
2023/12/09 02:39:22;;;;;;;23.95;13.80;;;;;;;1.80;100.00;99964.72;5068588;28;20029;-70
2023/12/09 02:41:49;;;;;;;26.38;14.63;;;;;;;1.74;100.00;99948.78;5058073;28;20108;-70
2023/12/09 02:44:14;;;;;;;29.35;16.88;;;;;;;1.32;100.00;99923.47;5068647;28;20111;-70
2023/12/09 02:46:40;;;;;;;25.85;14.80;;;;;;;1.48;100.00;99995.38;5059776;28;20443;-70
2023/12/09 02:49:05;;;;;;;25.75;15.50;;;;;;;1.17;100.00;100000.09;5068493;28;20044;-70
2023/12/09 02:51:31;;;;;;;45.15;24.92;;;;;;;1.50;100.00;99968.69;5067161;28;20032;-69
2023/12/09 02:53:56;;;;;;;51.00;26.90;;;;;;;1.61;100.00;99952.06;5067945;28;20071;-70
2023/12/09 02:56:22;;;;;;;41.50;23.95;;;;;;;1.70;100.00;100011.41;5067738;28;20028;-70
2023/12/09 02:58:47;;;;;;;34.95;21.15;;;;;;;1.54;100.00;99995.44;5068033;28;20505;-70
2023/12/09 03:01:12;;;;;;;34.72;20.65;;;;;;;1.33;100.00;99962.69;5067863;28;20066;-70
2023/12/09 03:03:38;;;;;;;33.55;19.50;;;;;;;1.93;100.00;100014.91;5056324;28;20024;-71
2023/12/09 03:06:04;;;;;;;31.48;18.98;;;;;;;1.76;100.00;100007.28;5067240;28;20028;-69
2023/12/09 03:08:29;;;;;;;30.80;18.10;;;;;;;1.83;100.00;100005.66;5067503;28;20579;-70
2023/12/09 03:10:55;;;;;;;28.15;16.90;;;;;;;1.67;100.00;99999.69;5068030;28;20043;-72
2023/12/09 03:13:20;;;;;;;25.08;15.68;;;;;;;1.53;100.00;100007.91;5068061;28;20039;-72
2023/12/09 03:15:46;;;;;;;29.05;16.33;;;;;;;1.15;100.00;99961.69;5059986;28;20136;-71
2023/12/09 03:18:11;;;;;;;24.92;15.23;;;;;;;1.63;100.00;100009.66;5067686;28;20029;-71
2023/12/09 03:20:37;;;;;;;28.92;16.63;;;;;;;1.86;100.00;100017.38;5067865;28;20024;-72
2023/12/09 03:23:02;;;;;;;27.08;17.35;;;;;;;1.53;100.00;99981.22;5067655;28;20032;-72
2023/12/09 03:25:28;;;;;;;24.95;15.35;;;;;;;1.63;100.00;99972.94;5067677;28;20033;-72
2023/12/09 03:27:53;;;;;;;26.08;16.52;;;;;;;1.80;100.00;99985.59;5066943;28;20082;-72
2023/12/09 03:30:20;;;;;;;28.50;17.20;;;;;;;1.59;100.00;99982.91;5067917;28;20038;-70
2023/12/09 03:32:45;;;;;;;29.02;17.95;;;;;;;0.78;100.00;99855.41;5067525;28;20032;-71
2023/12/09 03:35:12;;;;;;;28.02;17.15;;;;;;;1.16;100.00;99925.81;5067243;28;20449;-71
2023/12/09 03:37:38;;;;;;;28.55;17.50;;;;;;;1.01;100.00;99978.22;5059004;28;20036;-71
2023/12/09 03:40:03;;;;;;;27.77;16.90;;;;;;;1.31;100.00;99994.38;5067580;28;20078;-71
2023/12/09 03:42:29;;;;;;;29.15;17.38;;;;;;;1.22;100.00;99966.75;5066291;28;20054;-71
2023/12/09 03:44:54;;;;;;;32.97;19.60;;;;;;;1.11;100.00;99982.50;5067000;28;20029;-69
2023/12/09 03:47:20;;;;;;;30.70;18.00;;;;;;;1.20;100.00;99990.94;5052982;28;20039;-70
2023/12/09 03:49:45;;;;;;;28.38;16.52;;;;;;;1.29;100.00;100007.72;5066671;28;20052;-70
2023/12/09 03:52:11;;;;;;;26.73;16.50;;;;;;;1.51;100.00;99970.34;5059794;28;20033;-70
2023/12/09 03:54:37;;;;;;;27.83;16.42;;;;;;;0.89;100.00;99969.75;5057161;28;20101;-71
2023/12/09 03:57:03;;;;;;;25.73;15.70;;;;;;;1.25;100.00;99996.00;5055532;28;20032;-71
2023/12/09 03:59:29;;;;;;;26.98;15.75;;;;;;;1.40;100.00;100003.63;5067564;28;20406;-71
2023/12/09 04:01:54;;;;;;;50.88;32.35;;;;;;;0.89;100.00;99968.94;5053954;28;20066;-70
2023/12/09 04:04:20;;;;;;;64.30;39.75;;;;;;;1.03;100.00;99919.84;5066408;28;20124;-70
2023/12/09 04:06:45;;;;;;;43.33;27.85;;;;;;;1.50;100.00;99975.34;5065852;28;20098;-70
2023/12/09 04:09:11;;;;;;;40.92;25.27;;;;;;;1.29;100.00;99935.94;5059256;28;20031;-71
2023/12/09 04:11:37;;;;;;;85.05;47.33;;;;;;;1.61;100.00;99918.66;5066549;28;20032;-69
2023/12/09 04:14:03;;;;;;;63.20;37.50;;;;;;;0.99;100.00;99913.13;5066386;28;20028;-71
2023/12/09 04:16:29;;;;;;;46.00;28.35;;;;;;;1.09;100.00;99896.56;5061064;28;20032;-70
2023/12/09 04:18:54;;;;;;;40.55;26.23;;;;;;;1.19;100.00;99903.34;5063887;28;20106;-70
2023/12/09 04:21:20;;;;;;;37.90;22.48;;;;;;;0.90;100.00;99848.03;5063566;28;20048;-70
2023/12/09 04:23:46;;;;;;;134.93;68.85;;;;;;;1.44;100.00;99912.69;5051546;28;20119;-69
2023/12/09 04:26:11;;;;;;;161.23;88.50;;;;;;;0.77;100.00;99842.06;5063989;28;20119;-70
2023/12/09 04:28:37;;;;;;;116.57;62.92;;;;;;;0.92;100.00;99853.03;5063914;28;20068;-69
2023/12/09 04:31:02;;;;;;;87.88;49.20;;;;;;;0.94;100.00;99799.69;5062305;28;20117;-71
2023/12/09 04:33:29;;;;;;;86.18;48.45;;;;;;;0.59;100.00;99821.06;5063616;28;20115;-71
2023/12/09 04:35:55;;;;;;;115.43;65.97;;;;;;;0.98;100.00;99818.06;5063725;28;20035;-70
2023/12/09 04:38:21;;;;;;;73.18;42.97;;;;;;;1.31;100.00;99825.78;5064179;28;20029;-69
2023/12/09 04:40:46;;;;;;;52.00;33.13;;;;;;;1.22;100.00;99893.31;5066902;28;20044;-69
2023/12/09 04:43:12;;;;;;;44.42;27.48;;;;;;;1.56;100.00;99788.41;5068314;28;20028;-68
2023/12/09 04:45:38;;;;;;;43.03;28.27;;;;;;;1.00;100.00;99748.84;5068258;28;20111;-70
2023/12/09 04:48:03;;;;;;;52.92;35.40;;;;;;;0.77;100.00;99792.03;5068262;28;20071;-73
2023/12/09 04:50:29;;;;;;;56.97;35.22;;;;;;;1.66;100.00;99850.22;5069555;28;20078;-73
2023/12/09 04:52:54;;;;;;;55.95;33.78;;;;;;;0.93;100.00;99797.19;5069472;28;20461;-73
2023/12/09 04:55:20;;;;;;;46.45;32.20;;;;;;;1.34;100.00;99880.91;5069438;28;20047;-76
2023/12/09 04:57:45;;;;;;;49.50;33.15;;;;;;;1.32;100.00;99852.53;5068987;28;21072;-72
2023/12/09 05:00:11;;;;;;;48.08;29.73;;;;;;;1.20;100.00;99812.38;5068192;28;20032;-72
2023/12/09 05:02:37;;;;;;;43.83;28.63;;;;;;;1.57;100.00;99864.34;5068638;28;20132;-71
2023/12/09 05:05:04;;;;;;;39.67;27.02;;;;;;;1.12;100.00;99804.84;5068952;28;20036;-72
2023/12/09 05:07:30;;;;;;;44.45;25.25;;;;;;;1.32;100.00;99883.41;5065754;28;20573;-71
2023/12/09 05:09:56;;;;;;;39.28;24.52;;;;;;;1.11;100.00;99878.22;5066263;28;20113;-72
2023/12/09 05:12:22;;;;;;;39.67;25.17;;;;;;;1.44;100.00;99907.69;5069404;28;21476;-72
2023/12/09 05:14:47;;;;;;;39.25;24.83;;;;;;;1.16;100.00;99841.56;5069735;28;20028;-72
2023/12/09 05:17:14;;;;;;;36.85;24.15;;;;;;;1.23;100.00;99935.88;5068958;28;20044;-72
2023/12/09 05:19:39;;;;;;;42.17;25.08;;;;;;;1.08;100.00;99915.75;5057300;28;20040;-72
2023/12/09 05:22:05;;;;;;;39.75;25.23;;;;;;;1.30;100.00;99910.09;5068910;28;20036;-72
2023/12/09 05:24:30;;;;;;;42.05;27.10;;;;;;;1.30;100.00;99922.59;5059761;28;20043;-74
2023/12/09 05:26:57;;;;;;;172.55;88.43;;;;;;;0.82;100.00;99840.47;5068852;28;20028;-74
2023/12/09 05:29:23;;;;;;;62.95;38.47;;;;;;;1.01;100.00;99885.66;5068952;28;20126;-71
2023/12/09 05:31:48;;;;;;;61.03;40.35;;;;;;;1.06;100.00;99869.84;5069177;28;20091;-73
2023/12/09 05:34:15;;;;;;;73.32;45.45;;;;;;;0.71;100.00;99881.22;5068975;28;20040;-74
2023/12/09 05:36:41;;;;;;;43.50;28.40;;;;;;;1.25;100.00;99928.41;5068931;28;20036;-73
2023/12/09 05:39:06;;;;;;;36.88;23.90;;;;;;;1.36;100.00;99949.34;5058732;28;20086;-72
2023/12/09 05:41:32;;;;;;;36.42;24.58;;;;;;;1.48;100.00;99935.28;5069025;28;20036;-73
2023/12/09 05:43:57;;;;;;;38.22;25.80;;;;;;;1.10;100.00;99941.63;5069480;28;20095;-72
2023/12/09 05:46:23;;;;;;;50.85;30.67;;;;;;;1.09;100.00;99897.38;5069535;28;20031;-74
2023/12/09 05:48:49;;;;;;;70.82;38.47;;;;;;;0.83;100.00;99893.84;5068213;28;20040;-71
2023/12/09 05:51:15;;;;;;;57.42;35.65;;;;;;;1.21;100.00;99934.22;5068122;28;20174;-71
2023/12/09 05:53:41;;;;;;;51.72;34.03;;;;;;;0.32;100.00;99858.31;5068799;28;20032;-71
2023/12/09 05:56:11;;;;;;;56.95;34.45;;;;;;;1.27;100.00;99980.16;5059343;28;20032;-70
2023/12/09 05:58:39;;;;;;;52.75;32.55;;;;;;;1.21;100.00;100020.13;5068920;28;20502;-70
2023/12/09 06:01:05;;;;;;;50.72;32.58;;;;;;;0.87;100.00;99933.06;5068124;28;20025;-71
2023/12/09 06:03:31;;;;;;;50.40;29.98;;;;;;;1.45;100.00;99992.81;5065582;28;20041;-73
2023/12/09 06:05:57;;;;;;;50.30;29.80;;;;;;;0.84;100.00;99953.03;5057326;28;21480;-71
2023/12/09 06:08:23;;;;;;;49.55;27.58;;;;;;;1.26;100.00;100026.03;5068057;28;20440;-71
2023/12/09 06:10:52;;;;;;;63.72;42.17;;;;;;;1.15;100.00;100032.59;5057799;28;20033;-72
2023/12/09 06:13:18;;;;;;;77.72;50.03;;;;;;;1.30;100.00;100032.75;5067480;28;20513;-74
2023/12/09 06:15:43;;;;;;;70.40;46.83;;;;;;;1.12;100.00;100024.22;5068444;28;20037;-76
2023/12/09 06:18:09;;;;;;;82.68;55.63;;;;;;;1.46;100.00;100034.59;5056869;28;20051;-69
2023/12/09 06:20:34;;;;;;;71.10;47.28;;;;;;;2.63;100.00;100022.00;5067739;28;20494;-70
2023/12/09 06:23:00;;;;;;;92.72;57.72;;;;;;;1.86;100.00;100059.97;5067605;28;20040;-72
2023/12/09 06:25:26;;;;;;;64.93;41.65;;;;;;;1.59;100.00;100041.38;5066171;28;20456;-74
2023/12/09 06:27:51;;;;;;;61.88;40.28;;;;;;;2.22;100.00;100053.56;5068211;28;20032;-72
2023/12/09 06:30:17;;;;;;;72.80;49.40;;;;;;;3.04;100.00;100087.44;5068034;28;20084;-72
2023/12/09 06:32:43;;;;;;;72.68;46.42;;;;;;;3.53;100.00;99997.97;5067689;28;20054;-72
2023/12/09 06:35:09;;;;;;;246.15;55.92;;;;;;;4.15;100.00;100081.78;5068393;28;20029;-71
2023/12/09 06:37:34;;;;;;;55.63;25.83;;;;;;;2.49;100.00;100126.47;5068288;28;20082;-72
2023/12/09 06:40:00;;;;;;;48.40;23.83;;;;;;;4.93;100.00;100042.97;5067954;28;20536;-79
2023/12/09 06:42:25;;;;;;;34.80;21.95;;;;;;;6.70;100.00;100135.88;5068367;28;20036;-74
2023/12/09 06:44:51;;;;;;;81.00;27.88;;;;;;;8.30;100.00;100126.19;5055723;28;20028;-74
2023/12/09 06:47:16;;;;;;;45.97;30.00;;;;;;;6.02;100.00;100106.19;5067897;28;20040;-75
2023/12/09 06:49:42;;;;;;;42.58;23.48;;;;;;;7.38;100.00;100187.38;5067948;28;20070;-73
2023/12/09 06:52:07;;;;;;;66.95;47.72;;;;;;;7.83;100.00;100210.41;5056288;28;20040;-77
2023/12/09 16:29:07;;;;;;;22.30;13.63;;;;;;;4.14;100.00;101275.03;5065855;27;20428;-74
2023/12/09 16:31:33;;;;;;;21.42;13.52;;;;;;;3.93;100.00;101279.66;5046548;28;20041;-75
2023/12/09 16:33:58;;;;;;;26.95;17.17;;;;;;;4.25;100.00;101293.72;5075131;28;20032;-76
2023/12/09 16:36:24;;;;;;;23.52;15.70;;;;;;;3.49;100.00;101227.63;5046737;28;20120;-76
2023/12/09 16:38:51;;;;;;;27.23;17.73;;;;;;;3.57;100.00;101236.16;5048420;28;20024;-77
2023/12/09 16:41:17;;;;;;;26.95;17.15;;;;;;;3.80;100.00;101221.56;4711345;28;10000479;-79
2023/12/09 16:43:42;;;;;;;27.02;18.23;;;;;;;4.10;100.00;101272.47;5047827;28;20468;-79
2023/12/09 16:46:08;;;;;;;23.65;15.40;;;;;;;3.72;100.00;101290.97;5045012;28;20060;-77
2023/12/09 16:48:33;;;;;;;22.08;14.15;;;;;;;3.55;100.00;101235.28;5060596;28;20094;-78
2023/12/09 16:50:59;;;;;;;19.52;12.07;;;;;;;3.63;100.00;101258.94;5060803;28;20032;-76
2023/12/09 16:53:24;;;;;;;18.50;12.43;;;;;;;3.50;100.00;101226.81;5043206;28;20512;-77
2023/12/09 16:55:50;;;;;;;56.40;29.67;;;;;;;3.77;100.00;101329.59;5060863;28;20090;-79
2023/12/09 16:58:16;;;;;;;24.92;15.32;;;;;;;3.09;100.00;101246.00;5060872;28;20041;-77
2023/12/09 17:00:43;;;;;;;23.38;14.13;;;;;;;3.52;100.00;101245.28;5062541;28;20024;-76
2023/12/09 17:03:10;;;;;;;37.70;23.70;;;;;;;3.40;100.00;101266.00;5044741;28;20052;-77
2023/12/09 17:05:36;;;;;;;52.70;34.90;;;;;;;3.50;100.00;101285.50;5025975;28;20117;-78
2023/12/09 17:08:01;;;;;;;57.60;37.47;;;;;;;3.41;100.00;101332.16;5045859;28;20540;-74
2023/12/09 17:10:27;;;;;;;45.55;31.63;;;;;;;3.09;100.00;101220.91;5061189;28;20037;-76
2023/12/09 17:12:53;;;;;;;27.75;19.27;;;;;;;2.83;100.00;101209.44;5042761;28;20518;-75
2023/12/09 17:15:18;;;;;;;31.40;20.33;;;;;;;3.11;100.00;101220.97;5061375;28;20033;-75
2023/12/09 17:17:47;;;;;;;32.58;20.85;;;;;;;2.39;100.00;101159.88;5044989;28;20059;-75
2023/12/09 17:20:12;;;;;;;37.95;25.48;;;;;;;3.32;100.00;101261.63;5044174;28;20434;-75
2023/12/09 17:22:38;;;;;;;41.30;27.20;;;;;;;2.94;100.00;101187.94;5061693;28;20047;-74
2023/12/09 17:25:05;;;;;;;40.53;27.02;;;;;;;2.91;100.00;101207.09;5061111;28;20041;-74
2023/12/09 17:27:31;;;;;;;33.45;22.00;;;;;;;2.71;100.00;101200.78;5046117;28;20063;-74
2023/12/09 17:29:57;;;;;;;36.75;22.98;;;;;;;2.89;100.00;101207.06;5043224;28;20059;-74
2023/12/09 17:32:22;;;;;;;38.72;24.60;;;;;;;2.59;100.00;101234.78;5043838;28;20406;-74
2023/12/09 17:34:48;;;;;;;42.92;27.90;;;;;;;2.73;100.00;101224.25;5060911;28;20040;-74
2023/12/09 17:37:14;;;;;;;42.53;27.10;;;;;;;2.94;100.00;101235.63;5061106;28;20522;-75
2023/12/09 17:39:39;;;;;;;44.85;30.67;;;;;;;2.14;100.00;101165.09;5036148;28;20040;-74
2023/12/09 17:42:05;;;;;;;46.30;28.80;;;;;;;2.26;100.00;101160.34;5046762;28;20037;-75
2023/12/09 17:44:33;;;;;;;36.13;24.38;;;;;;;2.39;100.00;101248.53;5030945;28;20454;-74
2023/12/09 17:46:59;;;;;;;33.15;21.52;;;;;;;2.18;100.00;101149.31;5030799;28;20714;-74
2023/12/09 17:49:24;;;;;;;36.50;21.77;;;;;;;2.47;100.00;101194.38;5030717;28;20044;-73
2023/12/09 17:51:53;;;;;;;32.85;21.23;;;;;;;2.39;100.00;101194.97;5048214;28;20032;-74
2023/12/09 17:54:20;;;;;;;31.30;20.73;;;;;;;2.28;100.00;101132.00;5030964;28;20037;-75
2023/12/09 17:56:51;;;;;;;31.65;20.45;;;;;;;2.74;100.00;101180.75;5032246;28;20029;-73
2023/12/09 17:59:23;;;;;;;37.92;24.90;;;;;;;2.08;100.00;101160.75;5046556;28;20086;-73
2023/12/09 18:01:49;;;;;;;38.47;23.85;;;;;;;2.46;100.00;101181.75;5046721;28;20037;-73
2023/12/09 18:04:14;;;;;;;43.60;27.40;;;;;;;2.51;100.00;101207.84;5045952;28;20040;-73
2023/12/09 18:06:40;;;;;;;42.90;27.27;;;;;;;1.91;100.00;101084.28;5030789;28;20053;-74
2023/12/09 18:09:06;;;;;;;37.30;24.58;;;;;;;1.66;100.00;101100.34;5047277;28;20083;-74
2023/12/09 18:11:31;;;;;;;37.97;22.92;;;;;;;1.73;100.00;101063.78;5047268;28;20033;-73
2023/12/09 18:13:57;;;;;;;35.70;22.50;;;;;;;1.62;100.00;101058.50;5028931;28;20040;-75
2023/12/09 18:16:23;;;;;;;39.05;23.55;;;;;;;1.59;100.00;101045.03;5045756;28;20021;-74
2023/12/09 18:18:49;;;;;;;36.42;23.38;;;;;;;2.01;100.00;101120.44;5046835;28;20051;-73
2023/12/09 18:21:15;;;;;;;33.50;22.02;;;;;;;1.91;100.00;101099.31;5045301;28;21752;-73
2023/12/09 18:23:40;;;;;;;44.30;25.98;;;;;;;1.20;100.00;100929.69;5028075;28;20404;-74
2023/12/09 18:26:06;;;;;;;43.05;25.58;;;;;;;2.30;100.00;101030.03;5047256;28;20025;-75
2023/12/09 18:28:32;;;;;;;38.15;25.85;;;;;;;2.10;100.00;101061.34;5045265;28;20255;-75
2023/12/09 18:31:00;;;;;;;38.35;25.40;;;;;;;1.91;100.00;100988.19;5046776;28;20579;-73
2023/12/09 18:33:26;;;;;;;38.80;25.38;;;;;;;1.73;100.00;100958.53;5030975;28;20036;-74
2023/12/09 18:35:51;;;;;;;35.70;24.33;;;;;;;1.11;100.00;100934.47;5047465;28;20753;-74
2023/12/09 18:38:17;;;;;;;35.17;23.92;;;;;;;1.24;100.00;100960.66;5031898;28;20039;-75
2023/12/09 18:40:51;;;;;;;39.41;26.01;;;;;;;2.11;100.00;101048.00;4990404;28;10000668;-78
2023/12/09 18:43:17;;;;;;;40.80;25.75;;;;;;;1.81;100.00;101001.31;5030072;28;20252;-74
2023/12/09 18:45:42;;;;;;;43.60;25.42;;;;;;;1.89;100.00;101005.69;5046420;28;20037;-73
2023/12/09 18:48:08;;;;;;;41.92;24.90;;;;;;;1.43;100.00;100967.81;5045537;28;20427;-74
2023/12/09 18:50:33;;;;;;;37.00;24.83;;;;;;;2.19;100.00;100996.38;5043924;28;20068;-73
2023/12/09 18:52:59;;;;;;;34.80;23.17;;;;;;;1.32;100.00;100924.16;5027551;28;20419;-75
2023/12/09 18:55:25;;;;;;;40.03;25.88;;;;;;;1.77;100.00;100943.59;5029072;28;20483;-73
2023/12/09 18:57:50;;;;;;;40.95;25.63;;;;;;;2.05;100.00;100947.56;5044632;28;20037;-73
2023/12/09 19:00:16;;;;;;;38.63;25.17;;;;;;;2.08;100.00;100905.00;5027923;28;20033;-73
2023/12/09 19:02:42;;;;;;;33.88;21.73;;;;;;;2.21;100.00;100929.53;5028583;28;20176;-72
2023/12/09 19:05:09;;;;;;;38.33;25.30;;;;;;;2.18;100.00;100997.16;5045103;28;20056;-74
2023/12/09 19:07:35;;;;;;;38.10;24.52;;;;;;;2.32;100.00;100972.38;5011337;28;20033;-74
2023/12/09 19:10:02;;;;;;;45.65;29.13;;;;;;;2.16;100.00;100885.13;5045922;28;20033;-74
2023/12/09 19:12:28;;;;;;;40.08;26.98;;;;;;;2.20;100.00;100992.22;5013611;28;20251;-74
2023/12/09 19:14:54;;;;;;;31.73;21.65;;;;;;;1.83;100.00;100895.28;5043882;28;20482;-76
2023/12/09 19:17:20;;;;;;;32.42;21.63;;;;;;;1.93;100.00;100886.28;5041156;28;20485;-75
2023/12/09 19:19:46;;;;;;;36.60;22.98;;;;;;;1.53;100.00;100912.13;5042044;28;23462;-75
2023/12/09 19:22:11;;;;;;;37.42;22.45;;;;;;;1.65;100.00;100869.81;5042732;28;20545;-78
2023/12/09 19:24:37;;;;;;;43.38;25.58;;;;;;;1.73;100.00;100865.81;5043145;28;20029;-77
2023/12/09 19:27:03;;;;;;;39.88;24.30;;;;;;;1.71;100.00;100925.06;5025932;28;20053;-75
2023/12/09 19:29:29;;;;;;;36.72;22.83;;;;;;;1.82;100.00;100896.09;5025515;28;20346;-76
2023/12/09 19:31:56;;;;;;;34.53;22.17;;;;;;;2.14;100.00;100921.88;5042511;28;20033;-76
2023/12/09 19:34:23;;;;;;;35.00;22.17;;;;;;;2.11;100.00;100914.25;5042323;28;20012;-76
2023/12/09 19:36:49;;;;;;;32.17;20.38;;;;;;;2.14;100.00;100887.56;5040260;28;20596;-75
2023/12/09 19:39:17;;;;;;;31.60;19.77;;;;;;;1.46;100.00;100802.59;5027141;28;20413;-73
2023/12/09 19:41:43;;;;;;;28.00;19.65;;;;;;;1.57;100.00;100812.03;5023208;28;20036;-75
2023/12/09 19:44:08;;;;;;;32.67;19.30;;;;;;;2.05;100.00;100828.88;5042082;28;20468;-76
2023/12/09 19:46:36;;;;;;;31.25;20.10;;;;;;;1.91;100.00;100828.59;5026224;28;20116;-76
2023/12/09 19:49:01;;;;;;;36.90;22.73;;;;;;;1.55;100.00;100873.78;5026155;28;20037;-75
2023/12/09 19:51:27;;;;;;;30.95;19.88;;;;;;;1.94;100.00;100868.75;5025843;28;20370;-76
2023/12/09 19:53:52;;;;;;;34.78;22.45;;;;;;;1.22;100.00;100797.88;5025246;28;20146;-75
2023/12/09 19:56:18;;;;;;;37.15;22.67;;;;;;;1.90;100.00;100844.47;5041484;28;20466;-75
2023/12/09 19:58:43;;;;;;;36.42;23.70;;;;;;;1.65;100.00;100872.31;5026065;28;20043;-76
2023/12/09 20:01:09;;;;;;;37.40;23.90;;;;;;;1.62;100.00;100903.16;5041257;28;20040;-75
2023/12/09 20:03:35;;;;;;;40.75;26.52;;;;;;;1.64;100.00;100777.94;5026143;28;20055;-78
2023/12/09 20:06:02;;;;;;;41.63;26.65;;;;;;;1.83;100.00;100766.59;5026135;28;20414;-75
2023/12/09 20:08:28;;;;;;;37.70;24.10;;;;;;;1.91;100.00;100757.56;5041381;28;20037;-75
2023/12/09 20:10:53;;;;;;;39.15;24.65;;;;;;;2.07;100.00;100710.28;5022650;28;20313;-76
2023/12/09 20:13:19;;;;;;;39.28;26.23;;;;;;;1.29;100.00;100653.66;5041457;28;20025;-75
2023/12/09 20:15:45;;;;;;;37.88;24.63;;;;;;;1.48;100.00;100648.19;5041210;28;20067;-77
2023/12/09 20:18:10;;;;;;;37.60;24.58;;;;;;;2.19;100.00;100717.16;5039750;28;20887;-74
2023/12/09 20:20:36;;;;;;;36.38;23.75;;;;;;;1.80;100.00;100694.72;5047357;28;20041;-73
2023/12/09 20:23:02;;;;;;;36.70;23.95;;;;;;;1.67;100.00;100632.66;5029307;28;20028;-74
2023/12/09 20:25:27;;;;;;;39.95;24.52;;;;;;;1.63;100.00;100671.84;5047738;28;20029;-74
2023/12/09 20:27:53;;;;;;;40.25;25.45;;;;;;;1.95;100.00;100654.03;5049149;28;20045;-71
2023/12/09 20:30:19;;;;;;;40.75;25.83;;;;;;;1.98;100.00;100687.53;5031459;28;20025;-74
2023/12/09 20:32:45;;;;;;;45.20;27.38;;;;;;;1.57;100.00;100691.78;5031241;28;20119;-73
2023/12/09 20:35:11;;;;;;;43.05;26.73;;;;;;;1.62;100.00;100615.03;5049181;28;20108;-74
2023/12/09 20:37:37;;;;;;;40.72;25.20;;;;;;;1.59;100.00;100697.66;5031089;28;20625;-74
2023/12/09 20:40:03;;;;;;;38.08;24.75;;;;;;;1.75;100.00;100677.09;5049025;28;20526;-74
2023/12/09 20:42:28;;;;;;;41.38;26.88;;;;;;;1.57;100.00;100628.31;5030783;28;20083;-74